Hutchinson Municipal Airport
KHUT : now visible

Airfield :











YOU CAN JOIN US ON...

 
LOGIN :

Register | Disclaimer

   EN    FR    IT 

 









Legend :    VFR   Marginal VFR   IFR   Intensive IFR   Very Intensive IFR
Visi :
Ceiling :
>= 8 km
>= 3000ft
5 to 8 km
1000 to 3000 ft
1500m to 5 km
500 to 1000 ft
800 to 1500m
200 to 500 ft
< 800m
< 200 ft
Symbols :   Thunderstorms  Fog  Heavy snow  Heavy precipitations  Wind > 20 kt






- Airport Elevation : 1543 ft


KHUT - Hutchinson Municipal

CURRENT METAR :
  • 250658Z AUTO 01007G15KT 4SM BR OVC005 01/M01 A2979 RMK AO2 FZRAE58 P0000 I1000 T00061011

EXPIRED METARs :
  • 250652Z AUTO 03009G15KT 4SM -FZRA BR OVC004 01/M01 A2979 RMK AO2 UPB04E06RAB06E10FZRAB10 SLP091 P0006 I1004 T00061011
  • 250643Z AUTO 04007G16KT 3SM -FZRA BR OVC004 01/M01 A2980 RMK AO2 UPB04E06RAB06E10FZRAB10 P0006 I1004 T00061011
  • 250616Z AUTO 03009KT 2 1/2SM -FZRA BR BKN005 OVC011 01/M02 A2980 RMK AO2 UPB04E06RAB06E10FZRAB10 P0002 I1001 T00061017
  • 250552Z AUTO 03007KT 2 1/2SM BR BKN006 OVC011 01/M02 A2982 RMK AO2 UPB17E31 CIG 004V009 SLP102 P0000 60000 T00061017 10017 20006 400610000 58018
  • 250538Z AUTO 01011G19KT 2 1/2SM BR BKN007 OVC013 01/M01 A2983 RMK AO2 UPB17E31 CIG 004V009 P0000 T00061011
  • 250516Z AUTO 03007KT 4SM BR FEW009 OVC013 01/M01 A2985 RMK AO2 LTG DSNT SE T00111011
  • 250452Z AUTO 03008KT 4SM HZ SCT010 OVC014 01/M02 A2985 RMK AO2 SLP112 T00111017
  • 250448Z AUTO 03008KT 4SM HZ OVC014 01/M02 A2985 RMK AO2

TAF KHUT
Valid from the 25 at 06:00 until the 26 at 06:00 UTC


250618Z 2506/2606 04010KT 3SM -DZ BR OVC060
TEMPO 2506/2510 2SM RA BR OVC004
FM251000 03013KT 2SM RASN BR OVC004
FM251700 34015G23KT 1 1/2SM -SN BR OVC005
FM251900 33016KT P6SM OVC007
KZKC FIR / North America



MET'MAP, your aeronautical weather chart ! - Copyright ORBIFLY December 2007 - Disclaimer

ORBIFLY MET'MAP TEAM :

Programming & Development : Alexandra Zaïnal
Concept & original design : Baudouin d'Aumeries
Assistance for programming : Marc-Olivier Méhu
Technical & hardware support : Manuel Goepfert

Contact : metmap@orbifly.com




SOURCES & CREDITS :

   NOAA       Earth
Advisory